Time;durP1;ratioP1;P1;durP2;ratioP2;P2;SDS_P1;SDS_P2;PMS_P1;PMS_P2;Temp;Humidity;BMP_temperature;BMP_pressure;BME280_temperature;BME280_humidity;BME280_pressure;Samples;Min_cycle;Max_cycle;Signal;HPM_P1;HPM_P2
2022/07/19 00:11:58;;;;;;;7.65;2.63;;;;;;;-147.20;100.00;63046.97;31551383;28;20055;-62
2022/07/19 00:26:58;;;;;;;8.35;2.92;;;;;;;-147.20;100.00;63046.97;31549935;28;20036;-62
2022/07/19 00:41:59;;;;;;;11.75;3.45;;;;;;;-147.20;100.00;63046.97;31570531;28;20107;-62
2022/07/19 00:57:00;;;;;;;9.55;2.95;;;;;;;-147.20;100.00;63046.97;31569211;28;20041;-62
2022/07/19 01:12:00;;;;;;;11.07;3.35;;;;;;;-147.20;100.00;63046.97;31567665;28;20033;-62
2022/07/19 01:27:00;;;;;;;5.82;2.63;;;;;;;-147.20;100.00;63046.97;31566443;28;20032;-61
2022/07/19 01:42:01;;;;;;;7.38;3.10;;;;;;;-147.20;100.00;63046.97;31563573;28;20107;-65
2022/07/19 01:57:03;;;;;;;8.10;3.17;;;;;;;-147.20;100.00;63046.97;31437150;28;20080;-62
2022/07/19 02:12:03;;;;;;;8.82;4.60;;;;;;;-147.20;100.00;63046.97;31436171;28;20390;-62
2022/07/19 02:27:03;;;;;;;9.50;3.88;;;;;;;-147.20;100.00;63046.97;31434644;28;20095;-62
2022/07/19 02:42:04;;;;;;;8.02;4.22;;;;;;;-147.20;100.00;63046.97;31432823;28;20097;-65
2022/07/19 02:57:04;;;;;;;17.00;3.45;;;;;;;-147.20;100.00;63046.97;31430831;28;20510;-60
2022/07/19 03:12:05;;;;;;;6.85;3.47;;;;;;;-147.20;100.00;63046.97;31429674;28;20072;-68
2022/07/19 03:27:05;;;;;;;7.40;3.22;;;;;;;-147.20;100.00;63046.97;31428503;28;20821;-61
2022/07/19 03:42:06;;;;;;;8.02;3.28;;;;;;;-147.20;100.00;63046.97;31426050;28;20053;-63
2022/07/19 03:57:06;;;;;;;7.72;3.70;;;;;;;-147.20;100.00;63046.97;31423706;28;20026;-61
2022/07/19 04:12:07;;;;;;;7.03;3.10;;;;;;;-147.20;100.00;63046.97;31439427;28;21229;-65
2022/07/19 04:27:07;;;;;;;9.50;2.95;;;;;;;-147.20;100.00;63046.97;31442890;28;20033;-62
2022/07/19 04:42:07;;;;;;;6.55;2.47;;;;;;;-147.20;100.00;63046.97;31441641;28;20045;-63
2022/07/19 04:57:08;;;;;;;9.15;2.90;;;;;;;-147.20;100.00;63046.97;31439863;28;20116;-61
2022/07/19 05:12:09;;;;;;;5.70;2.85;;;;;;;-147.20;100.00;63046.97;31458022;28;20033;-61
2022/07/19 05:27:10;;;;;;;9.00;2.70;;;;;;;-147.20;100.00;63046.97;31551412;28;20094;-61
2022/07/19 05:42:10;;;;;;;6.35;3.22;;;;;;;-147.20;100.00;63046.97;31551701;28;20441;-60
2022/07/19 05:57:10;;;;;;;12.48;2.72;;;;;;;-147.20;100.00;63046.97;31550288;28;20540;-60
2022/07/19 06:12:11;;;;;;;6.63;2.42;;;;;;;-147.20;100.00;63046.97;31545142;28;20365;-61
2022/07/19 06:27:11;;;;;;;12.60;2.83;;;;;;;-147.20;100.00;63046.97;31537330;28;20052;-60
2022/07/19 06:42:11;;;;;;;7.75;2.15;;;;;;;-147.20;100.00;63046.97;31545354;28;20053;-60
2022/07/19 06:57:12;;;;;;;3.23;1.63;;;;;;;-147.20;100.00;63046.97;31524483;28;20108;-69
2022/07/19 07:12:12;;;;;;;7.95;2.10;;;;;;;-147.20;100.00;63046.97;31507610;28;20140;-66
2022/07/19 07:27:13;;;;;;;5.78;1.40;;;;;;;-147.20;100.00;63046.97;31542549;28;20025;-65
2022/07/19 07:42:13;;;;;;;5.60;1.80;;;;;;;-147.20;100.00;63046.97;31522062;28;20052;-66
2022/07/19 07:57:13;;;;;;;5.10;2.03;;;;;;;-147.20;100.00;63046.97;31528202;28;20042;-62
2022/07/19 08:12:14;;;;;;;5.72;1.50;;;;;;;-147.20;100.00;63046.97;31527120;28;20048;-64
2022/07/19 08:27:14;;;;;;;9.88;1.65;;;;;;;-147.20;100.00;63046.97;31534389;28;20381;-70
2022/07/19 08:42:19;;;;;;;5.30;1.40;;;;;;;-147.20;100.00;63046.97;31515282;28;25529;-67
2022/07/19 09:13:06;;;;;;;3.15;1.60;;;;;;;-147.20;100.00;63046.97;31557613;28;20524;-67
2022/07/19 09:28:07;;;;;;;4.30;1.90;;;;;;;-147.20;100.00;63046.97;31511225;28;20179;-66
2022/07/19 09:43:08;;;;;;;2.83;1.40;;;;;;;-147.20;100.00;63046.97;31524765;28;20096;-69
2022/07/19 09:58:09;;;;;;;4.22;1.83;;;;;;;-147.20;100.00;63046.97;31528097;28;20619;-66
2022/07/19 10:13:10;;;;;;;4.97;1.40;;;;;;;-147.20;100.00;63046.97;31545821;28;20044;-68
2022/07/19 10:28:31;;;;;;;6.68;1.98;;;;;;;-147.20;100.00;63046.97;31537950;28;20259;-65
2022/07/19 10:43:31;;;;;;;5.27;2.13;;;;;;;-147.20;100.00;63046.97;31543389;28;20044;-66
2022/07/19 10:58:53;;;;;;;6.18;1.70;;;;;;;-147.20;100.00;63046.97;31535109;28;20274;-66
2022/07/19 11:13:57;;;;;;;4.50;1.57;;;;;;;-147.20;100.00;63046.97;31552990;28;20037;-66
2022/07/19 11:28:58;;;;;;;4.30;1.63;;;;;;;-147.20;100.00;63046.97;31551954;28;20272;-68
2022/07/19 11:43:59;;;;;;;2.92;1.60;;;;;;;-147.20;100.00;63046.97;31550266;28;20406;-69
2022/07/19 11:59:05;;;;;;;2.43;1.20;;;;;;;-147.20;100.00;63046.97;31544636;28;20047;-66
2022/07/19 12:14:22;;;;;;;3.47;1.40;;;;;;;-147.20;100.00;63046.97;31537861;28;20299;-69
2022/07/19 12:29:36;;;;;;;7.03;1.50;;;;;;;-147.20;100.00;63046.97;31547096;28;20325;-63
2022/07/19 12:44:37;;;;;;;7.37;1.60;;;;;;;-147.20;100.00;63046.97;31558652;28;20268;-67
2022/07/19 12:59:40;;;;;;;6.05;2.03;;;;;;;-147.20;100.00;63046.97;31556893;28;20323;-67
2022/07/19 13:14:40;;;;;;;4.13;1.50;;;;;;;-147.20;100.00;63046.97;31521617;28;20117;-67
2022/07/19 13:29:41;;;;;;;5.53;1.38;;;;;;;-147.20;100.00;63046.97;31437551;28;20880;-67
2022/07/19 13:44:41;;;;;;;5.10;1.58;;;;;;;-147.20;100.00;63046.97;31475567;28;20048;-68
2022/07/19 13:59:42;;;;;;;11.63;2.72;;;;;;;-147.20;100.00;63046.97;31551301;28;20032;-68
2022/07/19 14:16:32;;;;;;;6.40;1.90;;;;;;;34.86;17.58;100461.22;31021448;28;97158;-66
2022/07/19 14:31:33;;;;;;;4.35;2.20;;;;;;;34.99;18.15;100456.63;31005154;28;97045;-68
2022/07/19 14:46:33;;;;;;;5.88;1.67;;;;;;;35.11;17.85;100450.44;31006865;28;96730;-71
2022/07/19 15:01:33;;;;;;;3.28;2.47;;;;;;;35.07;17.99;100440.00;31004891;28;96741;-70
2022/07/19 15:16:34;;;;;;;4.03;2.00;;;;;;;34.20;18.63;100445.56;30990699;28;97509;-70
2022/07/19 15:31:34;;;;;;;8.85;5.10;;;;;;;34.21;18.72;100430.63;30910870;28;98165;-68
2022/07/19 15:46:35;;;;;;;3.60;1.80;;;;;;;33.74;19.05;100428.41;30823453;28;97295;-73
2022/07/19 16:01:35;;;;;;;9.48;2.63;;;;;;;33.88;18.62;100428.31;30808511;28;96920;-67
2022/07/19 16:16:36;;;;;;;7.53;2.60;;;;;;;33.83;18.94;100420.16;30802816;28;97307;-66
2022/07/19 16:31:36;;;;;;;5.43;2.47;;;;;;;33.72;19.05;100412.16;30854807;28;96934;-65
2022/07/19 16:46:37;;;;;;;6.55;2.20;;;;;;;33.48;19.62;100409.00;30856506;28;97563;-66
2022/07/19 17:01:37;;;;;;;3.72;1.88;;;;;;;32.89;21.23;100410.00;30852857;28;98010;-63
2022/07/19 17:16:38;;;;;;;3.70;1.80;;;;;;;32.39;22.18;100408.97;30851855;28;97295;-66
2022/07/19 17:31:39;;;;;;;4.90;2.23;;;;;;;31.91;23.16;100405.94;30847969;28;97451;-66
2022/07/19 17:46:39;;;;;;;5.25;1.88;;;;;;;31.44;23.98;100406.03;30851146;28;96918;-67
2022/07/19 18:01:39;;;;;;;6.47;2.47;;;;;;;31.01;24.89;100421.66;30684486;23;97286;-73
2022/07/19 18:16:40;;;;;;;6.15;2.05;;;;;;;30.55;25.76;100425.16;30843614;28;114625;-64
2022/07/19 18:31:40;;;;;;;8.15;2.00;;;;;;;30.08;26.67;100430.50;30843382;28;97293;-65
2022/07/19 18:46:40;;;;;;;9.82;2.90;;;;;;;29.59;27.72;100448.91;30576269;28;97081;-66
2022/07/19 19:01:41;;;;;;;7.88;2.83;;;;;;;29.04;29.90;100444.50;30858329;28;97435;-65
2022/07/19 19:16:41;;;;;;;13.70;3.95;;;;;;;28.32;31.87;100456.00;30861300;28;97454;-67
2022/07/19 19:31:42;;;;;;;8.02;3.28;;;;;;;27.66;33.40;100473.47;30861201;28;96786;-64
2022/07/19 19:46:42;;;;;;;9.65;3.88;;;;;;;27.19;35.09;100476.25;30396936;28;96742;-63
2022/07/19 20:01:42;;;;;;;8.80;4.38;;;;;;;26.47;35.78;100484.38;30363372;28;97898;-64
2022/07/19 20:16:43;;;;;;;8.82;3.95;;;;;;;25.93;36.73;100485.53;30357702;28;97208;-73
2022/07/19 20:31:43;;;;;;;8.60;3.72;;;;;;;25.83;37.58;100485.47;30283646;28;96817;-76
2022/07/19 20:46:44;;;;;;;13.73;4.45;;;;;;;25.65;37.64;100493.00;30239365;28;97478;-64
2022/07/19 21:01:44;;;;;;;9.73;5.15;;;;;;;24.74;38.92;100502.06;30240019;28;97297;-67
2022/07/19 21:16:45;;;;;;;13.10;5.90;;;;;;;24.25;40.16;100498.25;30238835;28;98053;-66
2022/07/19 21:31:47;;;;;;;20.42;8.10;;;;;;;24.20;41.37;100509.06;30239550;28;97114;-64
2022/07/19 21:46:47;;;;;;;16.90;6.23;;;;;;;24.04;42.37;100508.06;30236688;28;96855;-65
2022/07/19 22:01:49;;;;;;;17.10;5.78;;;;;;;24.03;42.80;100503.72;30237635;28;97104;-64
2022/07/19 22:16:49;;;;;;;10.40;4.90;;;;;;;23.24;43.05;100507.44;30236914;28;96827;-70
2022/07/19 22:31:50;;;;;;;11.10;4.95;;;;;;;22.43;43.60;100521.94;30246289;28;97409;-64
2022/07/19 22:46:50;;;;;;;10.43;4.80;;;;;;;22.20;43.54;100530.94;30252888;28;97499;-64
2022/07/19 23:01:51;;;;;;;8.40;4.07;;;;;;;22.34;44.39;100524.22;30252257;28;97304;-65
2022/07/19 23:16:51;;;;;;;8.03;4.07;;;;;;;21.92;44.38;100529.81;30251231;28;96883;-64
2022/07/19 23:31:51;;;;;;;10.60;4.43;;;;;;;21.37;45.76;100550.75;30250554;28;96703;-63
2022/07/19 23:46:52;;;;;;;7.50;4.10;;;;;;;20.93;47.29;100545.56;30248652;28;96774;-68
